createdAt,value
2023-05-21T00:00:59.421Z,11.5893
2023-05-21T00:02:01.917Z,11.5892
2023-05-21T00:03:04.229Z,11.5892
2023-05-21T00:04:05.619Z,11.5899
2023-05-21T00:05:07.439Z,11.5894
2023-05-21T00:06:09.955Z,11.5930
2023-05-21T00:07:11.607Z,11.5927
2023-05-21T00:08:12.652Z,11.5940
2023-05-21T00:09:14.287Z,11.5932
2023-05-21T00:10:16.082Z,11.5945
2023-05-21T00:11:16.977Z,11.5949
2023-05-21T00:12:18.145Z,11.5948
2023-05-21T00:13:20.105Z,11.5945
2023-05-21T00:14:21.445Z,11.5949
2023-05-21T00:15:22.048Z,11.5953
2023-05-21T00:16:23.129Z,11.5943
2023-05-21T00:17:24.377Z,11.5939
2023-05-21T00:19:25.399Z,11.5921
2023-05-21T00:20:26.930Z,11.5906
2023-05-21T00:21:28.873Z,11.5890
2023-05-21T00:23:30.980Z,11.5840
2023-05-21T00:24:33.206Z,11.5815
2023-05-21T00:25:34.461Z,11.5784
2023-05-21T00:26:35.573Z,11.5754
2023-05-21T00:28:39.440Z,11.5724
2023-05-21T00:31:40.290Z,11.5682
2023-05-21T00:32:41.291Z,11.5678
2023-05-21T00:33:43.972Z,11.5683
2023-05-21T00:34:44.143Z,11.5672
2023-05-21T00:35:45.897Z,11.5687
2023-05-21T00:36:47.090Z,11.5690
2023-05-21T00:37:48.274Z,11.5692
2023-05-21T00:38:51.017Z,11.5694
2023-05-21T00:39:51.919Z,11.5704
2023-05-21T00:40:52.943Z,11.5732
2023-05-21T00:41:54.764Z,11.5753
2023-05-21T00:42:56.114Z,11.5762
2023-05-21T00:43:58.210Z,11.5789
2023-05-21T00:44:59.841Z,11.5810
2023-05-21T00:46:00.743Z,11.5846
2023-05-21T00:47:02.529Z,11.5871
2023-05-21T00:48:03.853Z,11.5905
2023-05-21T00:49:05.032Z,11.5948
2023-05-21T00:50:06.965Z,11.5983
2023-05-21T00:51:09.430Z,11.6012
2023-05-21T00:52:10.460Z,11.6043
2023-05-21T00:53:11.505Z,11.6073
2023-05-21T00:54:13.298Z,11.6108
2023-05-21T00:55:15.251Z,11.6170
2023-05-21T00:56:16.292Z,11.6212
2023-05-21T00:57:16.924Z,11.6255
2023-05-21T00:58:19.154Z,11.6294
2023-05-21T00:59:20.367Z,11.6343
2023-05-21T01:00:21.697Z,11.6399
2023-05-21T01:01:23.832Z,11.6439
2023-05-21T01:02:25.744Z,11.6481
2023-05-21T01:03:27.292Z,11.6519
2023-05-21T01:04:29.204Z,11.6558
2023-05-21T01:05:30.847Z,11.6594
2023-05-21T01:06:32.522Z,11.6634
2023-05-21T01:07:33.512Z,11.6673
2023-05-21T01:08:35.009Z,11.6721
2023-05-21T01:09:37.425Z,11.6774
2023-05-21T01:18:46.235Z,11.7381
2023-05-21T01:19:46.611Z,11.7457
2023-05-21T01:23:48.022Z,11.7793
2023-05-21T01:24:49.630Z,11.7885
2023-05-21T01:28:52.778Z,11.8270
2023-05-21T01:29:53.668Z,11.8358
2023-05-21T01:30:55.868Z,11.8475
2023-05-21T01:31:58.077Z,11.8566
2023-05-21T01:32:59.345Z,11.8671
2023-05-21T01:34:01.706Z,11.8790
2023-05-21T01:37:05.221Z,11.9131
2023-05-21T01:38:07.109Z,11.9257
2023-05-21T01:40:08.093Z,11.9478
2023-05-21T01:41:09.994Z,11.9585
2023-05-21T01:42:10.877Z,11.9687
2023-05-21T01:43:11.984Z,11.9809
2023-05-21T01:44:13.743Z,11.9932
2023-05-21T01:45:15.652Z,12.0045
2023-05-21T01:46:16.689Z,12.0152
2023-05-21T01:47:17.700Z,12.0259
2023-05-21T01:48:18.689Z,12.0370
2023-05-21T01:49:20.570Z,12.0469
2023-05-21T01:54:24.285Z,12.0897
2023-05-21T01:55:25.485Z,12.0962
2023-05-21T01:56:27.347Z,12.1019
2023-05-21T01:57:28.310Z,12.1084
2023-05-21T01:58:30.542Z,12.1129
2023-05-21T01:59:31.769Z,12.1171
2023-05-21T02:00:33.465Z,12.1203
2023-05-21T02:01:36.019Z,12.1227
2023-05-21T02:02:36.712Z,12.1246
2023-05-21T02:03:36.789Z,12.1264
2023-05-21T02:04:39.297Z,12.1252
2023-05-21T02:05:39.585Z,12.1253
2023-05-21T02:06:40.592Z,12.1242
2023-05-21T02:07:42.501Z,12.1218
2023-05-21T02:08:43.301Z,12.1191
2023-05-21T02:15:51.270Z,12.0865
2023-05-21T02:16:53.394Z,12.0795
2023-05-21T02:17:55.966Z,12.0728
2023-05-21T02:20:58.235Z,12.0474
2023-05-21T02:21:59.405Z,12.0388
2023-05-21T02:23:00.334Z,12.0273
2023-05-21T02:24:02.406Z,12.0161
2023-05-21T02:25:06.979Z,12.0064
2023-05-21T02:27:04.672Z,11.9831
2023-05-21T02:28:06.845Z,11.9720
2023-05-21T02:29:08.143Z,11.9578
2023-05-21T02:31:11.473Z,11.9319
2023-05-21T02:34:14.275Z,11.8837
2023-05-21T02:35:15.462Z,11.8660
2023-05-21T02:36:16.436Z,11.8509
2023-05-21T02:37:18.886Z,11.8354
2023-05-21T02:38:20.496Z,11.8166
2023-05-21T02:39:21.982Z,11.7983
2023-05-21T02:40:22.356Z,11.7787
2023-05-21T02:41:23.480Z,11.7597
2023-05-21T02:42:25.124Z,11.7377
2023-05-21T02:43:26.112Z,11.7164
2023-05-21T02:44:28.288Z,11.6911
2023-05-21T02:45:29.597Z,11.6665
2023-05-21T02:46:30.745Z,11.6439
2023-05-21T02:47:32.678Z,11.6224
2023-05-21T02:48:33.519Z,11.5992
2023-05-21T02:49:35.538Z,11.5747
2023-05-21T02:57:43.679Z,11.3798
2023-05-21T02:58:45.712Z,11.3519
2023-05-21T02:59:47.287Z,11.3272
2023-05-21T03:00:48.357Z,11.3044
2023-05-21T03:01:50.760Z,11.2794
2023-05-21T03:02:50.943Z,11.2565
2023-05-21T03:03:52.610Z,11.2296
2023-05-21T03:04:54.350Z,11.2058
2023-05-21T03:05:56.187Z,11.1810
2023-05-21T03:06:56.931Z,11.1559
2023-05-21T03:07:58.352Z,11.1338
2023-05-21T03:09:00.577Z,11.1087
2023-05-21T03:10:01.606Z,11.0875
2023-05-21T03:11:03.177Z,11.0643
2023-05-21T03:12:04.711Z,11.0375
2023-05-21T03:13:08.195Z,11.0149
2023-05-21T03:14:07.856Z,10.9922
2023-05-21T03:17:40.370Z,10.9225
2023-05-21T03:18:40.549Z,10.9009
2023-05-21T03:19:41.828Z,10.8809
2023-05-21T03:20:42.794Z,10.8595
2023-05-21T03:21:44.053Z,10.8405
2023-05-21T03:23:46.688Z,10.7999
2023-05-21T03:24:48.001Z,10.7793
2023-05-21T03:25:49.525Z,10.7598
2023-05-21T03:26:50.586Z,10.7380
2023-05-21T03:27:51.549Z,10.7167
2023-05-21T03:28:53.070Z,10.6964
2023-05-21T03:29:55.020Z,10.6789
2023-05-21T03:30:56.447Z,10.6573
2023-05-21T03:31:57.735Z,10.6369
2023-05-21T03:32:59.202Z,10.6167
2023-05-21T03:34:00.671Z,10.5950
2023-05-21T03:35:01.869Z,10.5747
2023-05-21T03:36:03.487Z,10.5545
2023-05-21T03:37:04.498Z,10.5329
2023-05-21T03:38:05.650Z,10.5118
2023-05-21T03:39:06.953Z,10.4917
2023-05-21T03:40:08.336Z,10.4703
2023-05-21T03:41:10.435Z,10.4496
2023-05-21T03:42:10.474Z,10.4298
2023-05-21T03:43:11.554Z,10.4026
2023-05-21T03:44:12.222Z,10.3793
2023-05-21T03:45:12.922Z,10.3587
2023-05-21T03:46:13.866Z,10.3378
2023-05-21T03:47:14.110Z,10.3189
2023-05-21T03:48:15.315Z,10.2950
2023-05-21T03:49:16.955Z,10.2729
2023-05-21T03:50:17.964Z,10.2518
2023-05-21T03:51:18.511Z,10.2329
2023-05-21T03:52:20.766Z,10.2120
2023-05-21T03:53:21.391Z,10.1928
2023-05-21T03:54:22.595Z,10.1741
2023-05-21T03:55:23.741Z,10.1561
2023-05-21T03:56:25.184Z,10.1368
2023-05-21T03:57:26.264Z,10.1188
2023-05-21T03:58:27.878Z,10.1009
2023-05-21T03:59:30.194Z,10.0828
2023-05-21T04:01:30.469Z,10.0492
2023-05-21T04:02:32.028Z,10.0336
2023-05-21T04:10:41.227Z,9.9458
2023-05-21T04:11:42.133Z,9.9387
2023-05-21T04:12:43.700Z,9.9324
2023-05-21T04:13:45.412Z,9.9283
2023-05-21T04:15:47.113Z,9.9233
2023-05-21T04:16:49.725Z,9.9237
2023-05-21T04:22:56.654Z,9.9409
2023-05-21T04:23:56.730Z,9.9470
2023-05-21T04:25:57.010Z,9.9640
2023-05-21T04:26:58.506Z,9.9751
2023-05-21T04:28:00.055Z,9.9861
2023-05-21T04:29:02.475Z,9.9982
2023-05-21T04:30:04.025Z,10.0105
2023-05-21T04:31:06.209Z,10.0238
2023-05-21T04:32:06.241Z,10.0382
2023-05-21T04:33:08.472Z,10.0537
2023-05-21T04:34:10.422Z,10.0705
2023-05-21T04:36:10.621Z,10.1097
2023-05-21T04:37:12.337Z,10.1305
2023-05-21T04:38:14.598Z,10.1518
2023-05-21T04:39:15.247Z,10.1752
2023-05-21T04:40:17.079Z,10.1990
2023-05-21T04:41:19.118Z,10.2252
2023-05-21T04:42:20.332Z,10.2523
2023-05-21T04:43:23.114Z,10.2807
2023-05-21T04:44:25.268Z,10.3154
2023-05-21T04:50:29.835Z,10.5181
2023-05-21T04:51:31.179Z,10.5547
2023-05-21T04:52:32.958Z,10.5919
2023-05-21T04:53:34.955Z,10.6311
2023-05-21T04:54:36.156Z,10.6697
2023-05-21T04:55:38.429Z,10.7103
2023-05-21T04:58:40.093Z,10.8339
2023-05-21T04:59:40.980Z,10.8769
2023-05-21T05:00:41.853Z,10.9202
2023-05-21T05:01:42.915Z,10.9686
2023-05-21T05:02:44.806Z,11.0148
2023-05-21T05:03:46.462Z,11.0649
2023-05-21T05:04:48.095Z,11.1145
2023-05-21T05:05:49.253Z,11.1635
2023-05-21T05:06:49.486Z,11.2120
2023-05-21T05:07:49.492Z,11.2617
2023-05-21T05:08:51.020Z,11.3108
2023-05-21T05:09:53.252Z,11.3604
2023-05-21T05:10:54.247Z,11.4135
2023-05-21T05:11:56.750Z,11.4647
2023-05-21T05:12:58.922Z,11.5177
2023-05-21T05:14:00.222Z,11.5712
2023-05-21T05:15:02.659Z,11.6311
2023-05-21T05:25:15.206Z,12.1988
2023-05-21T05:26:16.692Z,12.2614
2023-05-21T05:27:19.070Z,12.3198
2023-05-21T05:29:20.718Z,12.4358
2023-05-21T05:30:21.670Z,12.4942
2023-05-21T05:31:22.735Z,12.5505
2023-05-21T05:32:24.474Z,12.6052
2023-05-21T05:33:26.096Z,12.6615
2023-05-21T05:34:28.112Z,12.7176
2023-05-21T05:35:29.080Z,12.7722
2023-05-21T05:36:29.546Z,12.8238
2023-05-21T05:37:31.940Z,12.8819
2023-05-21T05:38:32.927Z,12.9411
2023-05-21T05:39:33.925Z,12.9995
2023-05-21T05:40:35.657Z,13.0552
2023-05-21T05:41:36.803Z,13.1098
2023-05-21T05:42:37.718Z,13.1626
2023-05-21T05:43:38.699Z,13.2176
2023-05-21T05:44:40.774Z,13.2724
2023-05-21T05:49:45.000Z,13.5517
2023-05-21T05:50:45.958Z,13.6064
2023-05-21T05:51:46.747Z,13.6660
2023-05-21T05:52:48.290Z,13.7207
2023-05-21T05:54:50.087Z,13.8335
2023-05-21T05:55:51.604Z,13.8907
2023-05-21T05:56:53.209Z,13.9477
2023-05-21T05:57:54.142Z,14.0063
2023-05-21T05:58:55.043Z,14.0622
2023-05-21T05:59:56.666Z,14.1178
2023-05-21T06:00:57.584Z,14.1772
2023-05-21T06:01:58.103Z,14.2336
2023-05-21T06:02:59.161Z,14.2952
2023-05-21T06:04:00.413Z,14.3537
2023-05-21T06:05:01.959Z,14.4113
2023-05-21T06:06:04.004Z,14.4731
2023-05-21T06:14:10.232Z,14.9515
2023-05-21T06:15:15.931Z,15.0087
2023-05-21T06:18:13.771Z,15.1808
2023-05-21T06:19:14.924Z,15.2354
2023-05-21T06:20:17.152Z,15.2923
2023-05-21T06:21:17.277Z,15.3468
2023-05-21T06:22:18.398Z,15.4028
2023-05-21T06:23:19.812Z,15.4614
2023-05-21T06:24:21.056Z,15.5176
2023-05-21T06:25:21.608Z,15.5771
2023-05-21T06:26:23.056Z,15.6366
2023-05-21T06:27:25.918Z,15.6939
2023-05-21T06:28:27.225Z,15.7549
2023-05-21T06:29:28.605Z,15.8138
2023-05-21T06:30:30.716Z,15.8720
2023-05-21T06:31:32.470Z,15.9329
2023-05-21T06:32:35.253Z,15.9943
2023-05-21T06:41:44.128Z,16.5307
2023-05-21T06:42:45.468Z,16.5873
2023-05-21T06:43:47.034Z,16.6391
2023-05-21T06:44:49.172Z,16.6937
2023-05-21T06:45:49.219Z,16.7487
2023-05-21T06:47:51.475Z,16.8538
2023-05-21T06:48:51.891Z,16.9028
2023-05-21T06:50:52.485Z,17.0035
2023-05-21T06:51:55.384Z,17.0535
2023-05-21T06:53:57.657Z,17.1490
2023-05-21T06:54:59.866Z,17.2014
2023-05-21T06:56:00.476Z,17.2463
2023-05-21T06:57:00.907Z,17.2900
2023-05-21T06:58:02.746Z,17.3305
2023-05-21T06:59:05.016Z,17.3749
2023-05-21T07:00:05.037Z,17.4184
2023-05-21T07:02:08.145Z,17.4962
2023-05-21T07:03:09.903Z,17.5347
2023-05-21T07:04:10.664Z,17.5724
2023-05-21T07:05:12.740Z,17.6096
2023-05-21T07:06:12.878Z,17.6475
2023-05-21T07:07:14.619Z,17.6849
2023-05-21T07:08:17.100Z,17.7224
2023-05-21T07:09:17.882Z,17.7544
2023-05-21T07:12:22.100Z,17.8472
2023-05-21T07:13:22.654Z,17.8758
2023-05-21T07:19:31.088Z,18.0375
2023-05-21T07:25:38.469Z,18.2589
2023-05-21T07:26:39.685Z,18.2935
2023-05-21T07:27:40.467Z,18.3271
2023-05-21T07:28:41.253Z,18.3591
2023-05-21T07:29:44.172Z,18.3889
2023-05-21T07:30:44.430Z,18.4169
2023-05-21T07:31:45.676Z,18.4457
2023-05-21T07:32:46.999Z,18.4739
2023-05-21T07:33:48.759Z,18.4996
2023-05-21T07:34:49.646Z,18.5242
2023-05-21T07:36:51.030Z,18.5740
2023-05-21T07:39:52.865Z,18.6661
2023-05-21T07:40:54.526Z,18.7024
2023-05-21T07:41:56.604Z,18.7375
2023-05-21T07:47:02.446Z,18.9363
2023-05-21T07:48:04.637Z,18.9729
2023-05-21T07:50:06.418Z,19.0436
2023-05-21T07:51:06.954Z,19.0812
2023-05-21T07:53:08.782Z,19.1576
2023-05-21T07:54:09.474Z,19.1963
2023-05-21T07:56:09.804Z,19.2681
2023-05-21T07:57:10.557Z,19.3084
2023-05-21T07:58:11.308Z,19.3510
2023-05-21T07:59:13.896Z,19.3934
2023-05-21T08:00:13.818Z,19.4480
2023-05-21T08:05:17.698Z,19.7202
2023-05-21T08:06:17.780Z,19.7744
2023-05-21T08:07:19.911Z,19.8245
2023-05-21T08:08:20.600Z,19.8722
2023-05-21T08:09:20.699Z,19.9141
2023-05-21T08:10:20.877Z,19.9560
2023-05-21T08:11:22.625Z,19.9962
2023-05-21T08:12:23.383Z,20.0309
2023-05-21T08:14:24.431Z,20.1066
2023-05-21T08:15:25.467Z,20.1446
2023-05-21T08:16:26.680Z,20.1841
2023-05-21T08:17:29.315Z,20.2306
2023-05-21T08:18:29.719Z,20.2801
2023-05-21T08:19:30.599Z,20.3258
2023-05-21T08:20:33.184Z,20.3801
2023-05-21T08:21:33.581Z,20.4423
2023-05-21T08:22:34.161Z,20.5099
2023-05-21T08:23:35.153Z,20.5887
2023-05-21T08:24:35.366Z,20.6739
2023-05-21T08:25:36.586Z,20.7649
2023-05-21T08:26:37.421Z,20.8444
2023-05-21T08:28:39.313Z,20.9914
2023-05-21T08:29:41.453Z,21.0689
2023-05-21T08:30:42.041Z,21.1482
2023-05-21T08:32:45.228Z,21.3276
2023-05-21T08:33:46.316Z,21.4377
2023-05-21T08:41:50.154Z,22.4366
2023-05-21T08:42:51.935Z,22.5685
2023-05-21T08:43:54.901Z,22.6970
2023-05-21T08:44:53.684Z,22.8227
2023-05-21T08:45:56.029Z,22.9378
2023-05-21T08:46:56.511Z,23.0486
2023-05-21T08:47:59.189Z,23.1605
2023-05-21T08:49:00.157Z,23.2723
2023-05-21T08:50:01.970Z,23.3811
2023-05-21T08:51:02.785Z,23.4866
2023-05-21T08:52:03.807Z,23.5810
2023-05-21T08:53:12.721Z,23.6647
2023-05-21T08:55:07.229Z,23.8002
2023-05-21T09:01:19.800Z,24.0231
2023-05-21T09:02:19.671Z,24.0415
2023-05-21T09:03:21.915Z,24.0685
2023-05-21T09:04:23.513Z,24.1050
2023-05-21T09:05:23.749Z,24.1509
2023-05-21T09:06:25.997Z,24.1913
2023-05-21T09:07:26.982Z,24.2216
2023-05-21T09:08:28.198Z,24.2625
2023-05-21T09:09:29.548Z,24.3144
2023-05-21T09:10:30.983Z,24.3757
2023-05-21T09:11:31.477Z,24.4562
2023-05-21T09:12:33.610Z,24.5458
2023-05-21T09:13:39.266Z,24.6449
2023-05-21T09:21:42.911Z,25.4146
2023-05-21T09:22:44.157Z,25.5353
2023-05-21T09:24:46.076Z,25.7863
2023-05-21T09:25:47.369Z,25.9117
2023-05-21T09:26:47.701Z,26.0343
2023-05-21T09:27:49.970Z,26.1431
2023-05-21T09:28:51.719Z,26.2389
2023-05-21T09:29:53.359Z,26.3222
2023-05-21T09:30:59.976Z,26.4037
2023-05-21T09:38:04.122Z,26.9104
2023-05-21T09:39:06.252Z,26.9928
2023-05-21T09:40:07.625Z,27.0803
2023-05-21T09:41:09.638Z,27.1795
2023-05-21T09:42:11.909Z,27.2804
2023-05-21T09:43:13.072Z,27.3814
2023-05-21T09:44:15.650Z,27.4758
2023-05-21T09:45:17.614Z,27.5618
2023-05-21T09:47:19.543Z,27.7083
2023-05-21T09:48:19.901Z,27.7770
2023-05-21T09:49:20.988Z,27.8429
2023-05-21T09:50:23.247Z,27.9036
2023-05-21T09:51:23.463Z,27.9664
2023-05-21T09:52:23.589Z,28.0334
2023-05-21T09:53:25.225Z,28.0852
2023-05-21T09:54:26.625Z,28.1613
2023-05-21T09:55:28.325Z,28.2259
2023-05-21T09:56:29.639Z,28.2845
2023-05-21T09:57:29.670Z,28.3447
2023-05-21T09:58:31.549Z,28.4007
2023-05-21T09:59:33.472Z,28.4608
2023-05-21T10:00:34.155Z,28.5121
2023-05-21T10:01:35.647Z,28.5597
2023-05-21T10:02:38.153Z,28.6126
2023-05-21T10:03:39.989Z,28.6727
2023-05-21T10:04:41.321Z,28.7385
2023-05-21T10:05:42.406Z,28.8139
2023-05-21T10:06:44.324Z,28.8949
2023-05-21T10:07:46.403Z,28.9805
2023-05-21T10:10:49.211Z,29.2194
2023-05-21T10:11:49.474Z,29.2845
2023-05-21T10:13:50.986Z,29.3819
2023-05-21T10:15:51.888Z,29.4111
2023-05-21T10:16:53.942Z,29.4081
2023-05-21T10:17:55.533Z,29.4068
2023-05-21T10:18:56.707Z,29.4107
2023-05-21T10:19:58.133Z,29.4195
2023-05-21T10:20:58.385Z,29.4319
2023-05-21T10:21:59.339Z,29.4398
2023-05-21T10:23:00.606Z,29.4380
2023-05-21T10:24:01.194Z,29.4271
2023-05-21T10:25:01.782Z,29.4137
2023-05-21T10:26:04.019Z,29.4032
2023-05-21T10:27:04.097Z,29.3946
2023-05-21T10:28:07.166Z,29.3879
2023-05-21T10:30:11.827Z,29.3622
2023-05-21T10:35:12.376Z,29.2555
2023-05-21T10:36:13.922Z,29.2280
2023-05-21T10:38:15.252Z,29.1684
2023-05-21T10:41:29.918Z,29.1128
2023-05-21T10:49:33.106Z,29.2268
2023-05-21T10:50:33.712Z,29.2565
2023-05-21T10:51:35.075Z,29.2832
2023-05-21T10:52:37.245Z,29.3075
2023-05-21T10:53:37.935Z,29.3315
2023-05-21T10:54:38.541Z,29.3539
2023-05-21T10:55:38.958Z,29.3757
2023-05-21T10:56:39.644Z,29.3973
2023-05-21T10:57:41.911Z,29.4159
2023-05-21T11:00:43.730Z,29.4188
2023-05-21T11:01:45.858Z,29.4074
2023-05-21T11:02:46.759Z,29.3990
2023-05-21T11:04:48.082Z,29.3972
2023-05-21T11:05:48.920Z,29.4173
2023-05-21T11:06:49.762Z,29.4532
2023-05-21T11:07:51.207Z,29.5119
2023-05-21T11:08:53.788Z,29.5923
2023-05-21T11:09:53.015Z,29.6939
2023-05-21T11:10:53.262Z,29.7998
2023-05-21T11:16:59.715Z,30.4775
2023-05-21T11:18:01.775Z,30.5735
2023-05-21T11:19:03.855Z,30.6710
2023-05-21T11:21:04.567Z,30.8355
2023-05-21T11:22:07.235Z,30.9156
2023-05-21T11:23:07.745Z,30.9956
2023-05-21T11:24:08.040Z,31.0799
2023-05-21T11:25:10.003Z,31.1678
2023-05-21T11:26:12.105Z,31.2658
2023-05-21T11:28:14.107Z,31.4446
2023-05-21T11:29:15.031Z,31.5356
2023-05-21T11:30:16.170Z,31.6257
2023-05-21T11:31:17.829Z,31.7153
2023-05-21T11:32:19.085Z,31.8030
2023-05-21T11:33:20.299Z,31.8964
2023-05-21T11:34:22.747Z,31.9934
2023-05-21T11:35:22.835Z,32.0872
2023-05-21T11:36:24.071Z,32.1745
2023-05-21T11:37:27.543Z,32.2666
2023-05-21T11:39:27.681Z,32.4406
2023-05-21T11:47:36.728Z,33.1852
2023-05-21T11:49:37.223Z,33.3433
2023-05-21T11:50:38.304Z,33.4232
2023-05-21T11:51:38.369Z,33.5073
2023-05-21T11:52:39.797Z,33.5908
2023-05-21T11:53:44.028Z,33.6722
2023-05-21T11:54:41.995Z,33.7470
2023-05-21T11:56:45.846Z,33.8800
2023-05-21T11:57:47.293Z,33.9475
2023-05-21T11:58:48.111Z,34.0115
2023-05-21T11:59:49.985Z,34.0744
2023-05-21T12:00:52.635Z,34.1406
2023-05-21T12:01:54.134Z,34.2065
2023-05-21T12:02:54.895Z,34.2788
2023-05-21T12:03:56.858Z,34.3521
2023-05-21T12:04:59.150Z,34.4330
2023-05-21T12:06:00.456Z,34.5271
2023-05-21T12:07:01.738Z,34.6291
2023-05-21T12:08:02.126Z,34.7338
2023-05-21T12:09:03.186Z,34.8453
2023-05-21T12:10:04.171Z,34.9626
2023-05-21T12:11:04.858Z,35.0795
2023-05-21T12:15:06.501Z,35.4835
2023-05-21T12:16:07.323Z,35.5576
2023-05-21T12:18:07.451Z,35.6625
2023-05-21T12:19:07.633Z,35.6939
2023-05-21T12:20:08.326Z,35.7120
2023-05-21T12:22:11.408Z,35.7250
2023-05-21T12:23:13.438Z,35.7323
2023-05-21T12:24:14.152Z,35.7375
2023-05-21T12:25:15.257Z,35.7435
2023-05-21T12:26:18.178Z,35.7522
2023-05-21T12:27:19.986Z,35.7615
2023-05-21T12:33:25.323Z,35.6331
2023-05-21T12:34:28.036Z,35.5960
2023-05-21T12:37:31.006Z,35.4222
2023-05-21T12:39:31.442Z,35.2757
2023-05-21T12:40:32.965Z,35.2156
2023-05-21T12:41:34.338Z,35.1585
2023-05-21T12:42:34.826Z,35.1039
2023-05-21T12:43:36.268Z,35.0350
2023-05-21T12:44:38.672Z,34.9565
2023-05-21T12:45:41.312Z,34.8779
2023-05-21T12:46:41.456Z,34.7855
2023-05-21T12:53:50.399Z,34.1141
2023-05-21T12:54:51.718Z,34.0359
2023-05-21T12:55:53.638Z,33.9611
2023-05-21T12:56:56.234Z,33.8957
2023-05-21T12:57:56.972Z,33.8306
2023-05-21T12:59:57.670Z,33.6941
2023-05-21T13:00:59.434Z,33.6092
2023-05-21T13:01:59.631Z,33.5172
2023-05-21T13:03:59.608Z,33.3657
2023-05-21T13:04:59.908Z,33.3045
2023-05-21T13:06:01.987Z,33.2475
2023-05-21T13:07:04.824Z,33.1991
2023-05-21T13:08:04.769Z,33.1572
2023-05-21T13:09:06.382Z,33.1284
2023-05-21T13:10:07.946Z,33.1150
2023-05-21T13:11:10.676Z,33.1091
2023-05-21T13:12:12.726Z,33.1004
2023-05-21T13:14:14.275Z,33.0652
2023-05-21T13:20:19.178Z,32.9544
2023-05-21T13:21:21.089Z,32.9131
2023-05-21T13:22:22.024Z,32.8765
2023-05-21T13:23:24.881Z,32.8241
2023-05-21T13:28:28.155Z,32.5444
2023-05-21T13:29:30.051Z,32.4899
2023-05-21T13:30:30.944Z,32.4353
2023-05-21T13:31:32.742Z,32.3874
2023-05-21T13:32:33.204Z,32.3429
2023-05-21T13:33:35.151Z,32.3012
2023-05-21T13:34:36.150Z,32.2596
2023-05-21T13:35:36.214Z,32.2273
2023-05-21T13:36:37.081Z,32.2061
2023-05-21T13:37:37.064Z,32.1931
2023-05-21T13:38:38.549Z,32.1932
2023-05-21T13:39:39.766Z,32.2074
2023-05-21T13:40:40.365Z,32.2271
2023-05-21T13:41:41.054Z,32.2538
2023-05-21T13:42:41.143Z,32.2791
2023-05-21T13:43:43.686Z,32.2942
2023-05-21T13:44:44.478Z,32.2908
2023-05-21T13:51:51.492Z,31.9950
2023-05-21T13:52:53.676Z,31.9210
2023-05-21T13:53:55.602Z,31.8448
2023-05-21T13:54:55.013Z,31.7656
2023-05-21T13:56:55.412Z,31.6019
2023-05-21T13:57:56.058Z,31.5062
2023-05-21T13:58:56.588Z,31.4134
2023-05-21T13:59:57.246Z,31.3304
2023-05-21T14:01:59.854Z,31.1650
2023-05-21T14:03:01.594Z,31.0911
2023-05-21T14:04:02.243Z,31.0294
2023-05-21T14:05:05.218Z,30.9683
2023-05-21T14:06:06.327Z,30.9093
2023-05-21T14:07:07.600Z,30.8490
2023-05-21T14:09:10.876Z,30.7633
2023-05-21T14:10:12.544Z,30.7376
2023-05-21T14:11:12.852Z,30.7158
2023-05-21T14:12:14.869Z,30.6928
2023-05-21T14:13:19.970Z,30.6771
2023-05-21T14:14:17.532Z,30.6827
2023-05-21T14:15:18.379Z,30.7182
2023-05-21T14:16:20.289Z,30.7732
2023-05-21T14:17:22.433Z,30.8452
2023-05-21T14:18:23.842Z,30.9509
2023-05-21T14:19:24.873Z,31.0750
2023-05-21T14:20:24.889Z,31.2036
2023-05-21T14:21:26.389Z,31.3438
2023-05-21T14:22:26.641Z,31.4791
2023-05-21T14:24:34.361Z,31.7274
2023-05-21T14:29:33.162Z,32.1532
2023-05-21T14:30:33.921Z,32.2061
2023-05-21T14:31:36.092Z,32.2434
2023-05-21T14:32:36.693Z,32.2635
2023-05-21T14:33:37.706Z,32.2737
2023-05-21T14:36:41.983Z,32.3101
2023-05-21T14:37:42.604Z,32.3198
2023-05-21T14:38:43.844Z,32.3239
2023-05-21T14:40:44.101Z,32.2969
2023-05-21T14:41:46.106Z,32.2816
2023-05-21T14:42:48.212Z,32.2706
2023-05-21T14:43:48.786Z,32.2592
2023-05-21T14:44:49.304Z,32.2459
2023-05-21T14:45:50.683Z,32.2308
2023-05-21T14:46:50.703Z,32.2158
2023-05-21T14:47:52.088Z,32.1794
2023-05-21T14:48:53.881Z,32.1565
2023-05-21T14:49:54.844Z,32.1380
2023-05-21T14:50:56.292Z,32.0940
2023-05-21T14:51:58.223Z,32.0271
2023-05-21T14:52:58.546Z,31.9358
2023-05-21T14:53:59.084Z,31.8209
2023-05-21T14:55:01.129Z,31.6925
2023-05-21T14:56:01.144Z,31.5590
2023-05-21T14:57:01.416Z,31.4172
2023-05-21T14:58:03.507Z,31.2650
2023-05-21T14:59:04.958Z,31.1130
2023-05-21T15:00:05.535Z,30.9499
2023-05-21T15:01:06.407Z,30.7851
2023-05-21T15:02:07.193Z,30.6282
2023-05-21T15:03:07.728Z,30.4689
2023-05-21T15:04:08.336Z,30.3065
2023-05-21T15:05:09.552Z,30.1554
2023-05-21T15:07:10.864Z,29.8730
2023-05-21T15:08:12.244Z,29.7306
2023-05-21T15:09:12.991Z,29.5877
2023-05-21T15:10:16.598Z,29.4565
2023-05-21T15:11:16.900Z,29.3181
2023-05-21T15:12:18.317Z,29.2049
2023-05-21T15:14:20.312Z,29.0059
2023-05-21T15:15:20.936Z,28.9195
2023-05-21T15:16:22.220Z,28.8497
2023-05-21T15:18:25.734Z,28.7605
2023-05-21T15:19:26.252Z,28.7384
2023-05-21T15:20:27.090Z,28.7309
2023-05-21T15:21:29.107Z,28.7362
2023-05-21T15:22:30.497Z,28.7484
2023-05-21T15:24:32.649Z,28.8015
2023-05-21T15:25:33.867Z,28.8457
2023-05-21T15:26:34.694Z,28.9005
2023-05-21T15:27:35.573Z,28.9652
2023-05-21T15:28:37.500Z,29.0436
2023-05-21T15:29:38.171Z,29.1301
2023-05-21T15:30:38.886Z,29.2120
2023-05-21T15:31:39.429Z,29.3052
2023-05-21T15:33:40.622Z,29.4936
2023-05-21T15:34:40.662Z,29.5896
2023-05-21T15:35:43.661Z,29.6911
2023-05-21T15:37:44.808Z,29.8710
2023-05-21T15:38:45.262Z,29.9610
2023-05-21T15:40:47.909Z,30.1647
2023-05-21T15:41:49.017Z,30.2748
2023-05-21T15:42:49.641Z,30.3952
2023-05-21T15:43:51.318Z,30.5170
2023-05-21T15:44:52.238Z,30.6449
2023-05-21T15:45:53.266Z,30.7660
2023-05-21T15:46:53.084Z,30.8868
2023-05-21T15:47:54.240Z,31.0054
2023-05-21T15:48:55.948Z,31.1162
2023-05-21T15:49:58.132Z,31.2294
2023-05-21T15:50:58.632Z,31.3410
2023-05-21T15:51:59.981Z,31.4473
2023-05-21T15:53:01.720Z,31.5629
2023-05-21T15:57:34.196Z,32.0732
2023-05-21T15:58:39.025Z,32.1571
2023-05-21T16:07:44.528Z,32.6818
2023-05-21T16:08:45.977Z,32.7283
2023-05-21T16:09:48.290Z,32.7674
2023-05-21T16:10:50.265Z,32.7991
2023-05-21T16:11:52.180Z,32.8228
2023-05-21T16:12:52.363Z,32.8372
2023-05-21T16:13:54.178Z,32.8397
2023-05-21T16:18:30.409Z,32.7031
2023-05-21T16:19:32.836Z,32.6450
2023-05-21T16:21:34.212Z,32.5053
2023-05-21T16:22:34.794Z,32.4274
2023-05-21T16:23:36.510Z,32.3320
2023-05-21T16:24:37.947Z,32.2265
2023-05-21T16:25:39.996Z,32.1120
2023-05-21T16:26:41.814Z,31.9824
2023-05-21T16:28:44.506Z,31.6887
2023-05-21T16:29:46.394Z,31.5209
2023-05-21T16:30:45.976Z,31.3552
2023-05-21T16:31:47.549Z,31.1864
2023-05-21T16:32:48.790Z,31.0248
2023-05-21T16:33:49.688Z,30.8587
2023-05-21T16:34:51.241Z,30.6949
2023-05-21T16:35:54.156Z,30.5505
2023-05-21T16:36:57.166Z,30.3926
2023-05-21T16:38:58.103Z,30.1137
2023-05-21T16:39:59.634Z,29.9812
2023-05-21T16:40:59.644Z,29.8648
2023-05-21T16:42:02.393Z,29.7451
2023-05-21T16:43:04.338Z,29.6290
2023-05-21T16:52:44.730Z,28.9416
2023-05-21T16:53:44.938Z,28.8857
2023-05-21T16:55:48.190Z,28.7893
2023-05-21T16:56:48.555Z,28.7364
2023-05-21T16:58:50.476Z,28.6446
2023-05-21T17:00:51.370Z,28.5372
2023-05-21T17:01:52.005Z,28.4748
2023-05-21T17:03:53.140Z,28.3296
2023-05-21T17:04:52.999Z,28.2506
2023-05-21T17:05:54.769Z,28.1726
2023-05-21T17:06:57.010Z,28.0831
2023-05-21T17:14:06.492Z,27.3656
2023-05-21T17:15:06.942Z,27.2546
2023-05-21T17:16:07.059Z,27.1433
2023-05-21T17:17:09.139Z,27.0325
2023-05-21T17:18:10.979Z,26.9221
2023-05-21T17:19:12.157Z,26.8082
2023-05-21T17:20:13.398Z,26.7037
2023-05-21T17:21:15.180Z,26.5981
2023-05-21T17:22:17.309Z,26.4968